Time;durP1;ratioP1;P1;durP2;ratioP2;P2;SDS_P1;SDS_P2;PMS_P1;PMS_P2;Temp;Humidity;BMP_temperature;BMP_pressure;BME280_temperature;BME280_humidity;BME280_pressure;Samples;Min_cycle;Max_cycle;Signal;HPM_P1;HPM_P2
2022/05/12 00:03:45;;;;;;;2.58;0.63;;;17.70;79.10;;;;;;10364471;28;20049;-67
2022/05/12 00:08:46;;;;;;;2.58;0.68;;;17.70;79.10;;;;;;10364037;28;20078;-67
2022/05/12 00:13:47;;;;;;;3.22;1.00;;;17.60;79.00;;;;;;10364318;28;20026;-58
2022/05/12 00:18:47;;;;;;;2.17;0.60;;;17.70;79.00;;;;;;10363825;28;20022;-58
2022/05/12 00:23:56;;;;;;;3.80;0.73;;;17.60;78.90;;;;;;10364473;28;20038;-59
2022/05/12 00:28:58;;;;;;;2.80;1.05;;;17.50;78.80;;;;;;10363672;28;20118;-58
2022/05/12 00:34:00;;;;;;;1.73;0.70;;;17.50;78.80;;;;;;10363669;28;20432;-62
2022/05/12 00:39:01;;;;;;;2.35;0.68;;;17.40;78.70;;;;;;10370043;28;20022;-66
2022/05/12 00:44:07;;;;;;;2.05;0.57;;;17.40;78.70;;;;;;10370389;28;20451;-58
2022/05/12 00:49:21;;;;;;;2.03;0.30;;;17.60;78.70;;;;;;10370319;28;20093;-65
2022/05/12 00:54:33;;;;;;;1.67;0.50;;;17.30;78.60;;;;;;10369976;28;20038;-59
2022/05/12 00:59:35;;;;;;;0.90;0.40;;;17.30;78.60;;;;;;10369876;28;20026;-65
2022/05/12 01:04:38;;;;;;;2.70;0.60;;;17.30;78.60;;;;;;10369686;28;20513;-58
2022/05/12 01:09:39;;;;;;;1.23;0.68;;;17.30;78.50;;;;;;10369233;28;20060;-59
2022/05/12 01:14:41;;;;;;;1.60;0.47;;;17.30;78.50;;;;;;10369625;28;20046;-61
2022/05/12 01:19:42;;;;;;;0.95;0.52;;;17.20;78.40;;;;;;10369236;28;20037;-68
2022/05/12 01:24:43;;;;;;;1.50;0.50;;;17.20;78.40;;;;;;10368870;28;20528;-65
2022/05/12 01:29:44;;;;;;;0.70;0.40;;;17.10;78.30;;;;;;10368883;28;20026;-67
2022/05/12 01:34:45;;;;;;;1.30;0.60;;;17.10;78.30;;;;;;10368717;28;20445;-62
2022/05/12 01:39:45;;;;;;;0.77;0.40;;;17.00;78.20;;;;;;10368655;28;20394;-67
2022/05/12 01:44:46;;;;;;;1.58;0.50;;;17.00;78.20;;;;;;10368446;28;20041;-64
2022/05/12 01:49:48;;;;;;;1.60;0.77;;;17.00;78.30;;;;;;10367577;28;20033;-59
2022/05/12 01:54:48;;;;;;;0.68;0.50;;;17.00;78.40;;;;;;10350698;28;20610;-68
2022/05/12 01:59:50;;;;;;;1.05;0.40;;;16.90;78.80;;;;;;10367833;28;20127;-67
2022/05/12 02:04:50;;;;;;;1.23;0.55;;;16.90;78.30;;;;;;10367975;28;20057;-65
2022/05/12 02:09:51;;;;;;;0.60;0.40;;;16.90;78.30;;;;;;10367443;28;20087;-60
2022/05/12 02:14:52;;;;;;;3.75;0.60;;;16.80;78.20;;;;;;10367686;28;20086;-59
2022/05/12 02:19:53;;;;;;;1.83;0.60;;;16.80;78.20;;;;;;10367377;28;20026;-68
2022/05/12 02:24:53;;;;;;;0.50;0.32;;;16.80;78.30;;;;;;10367280;28;20088;-67
2022/05/12 02:29:54;;;;;;;3.47;0.63;;;16.80;78.30;;;;;;10367062;28;20022;-58
2022/05/12 02:34:55;;;;;;;1.98;0.60;;;16.70;78.20;;;;;;10366736;28;20038;-66
2022/05/12 02:39:56;;;;;;;4.65;0.50;;;16.70;78.20;;;;;;10366743;28;20490;-66
2022/05/12 02:44:57;;;;;;;1.08;0.38;;;16.70;78.20;;;;;;10366472;28;20073;-67
2022/05/12 02:49:58;;;;;;;1.45;0.50;;;16.60;78.20;;;;;;10366751;28;20029;-67
2022/05/12 02:55:00;;;;;;;2.53;0.70;;;16.60;78.20;;;;;;10366274;28;20053;-58
2022/05/12 03:00:02;;;;;;;0.68;0.30;;;16.60;77.70;;;;;;10364726;28;20109;-58
2022/05/12 03:05:03;;;;;;;3.90;0.70;;;16.60;78.20;;;;;;10366279;28;20042;-59
2022/05/12 03:10:04;;;;;;;3.55;0.57;;;16.50;78.20;;;;;;10365755;28;20132;-64
2022/05/12 03:15:06;;;;;;;1.90;0.55;;;16.50;78.30;;;;;;10365840;28;20128;-68
2022/05/12 03:20:11;;;;;;;3.28;0.60;;;16.40;78.20;;;;;;10365584;28;20082;-64
2022/05/12 03:25:14;;;;;;;2.10;0.50;;;16.40;78.20;;;;;;10365681;28;20038;-68
2022/05/12 03:30:19;;;;;;;1.92;0.70;;;16.40;78.20;;;;;;10365734;28;20065;-68
2022/05/12 03:35:20;;;;;;;2.95;0.80;;;16.40;78.30;;;;;;10365275;28;20022;-66
2022/05/12 03:40:20;;;;;;;2.55;0.70;;;16.30;78.20;;;;;;10365386;28;20033;-59
2022/05/12 03:45:22;;;;;;;3.05;0.70;;;16.30;78.20;;;;;;10364835;28;20034;-58
2022/05/12 03:50:26;;;;;;;1.60;0.70;;;16.30;78.30;;;;;;10365011;28;20099;-67
2022/05/12 03:55:27;;;;;;;3.28;0.73;;;16.30;78.30;;;;;;10364621;28;20022;-68
2022/05/12 04:00:29;;;;;;;1.83;0.80;;;16.20;78.30;;;;;;10364610;28;20106;-61
2022/05/12 04:05:31;;;;;;;4.85;0.90;;;16.20;78.30;;;;;;10364230;28;20049;-59
2022/05/12 04:10:32;;;;;;;2.38;1.10;;;16.20;78.30;;;;;;10365793;28;20132;-67
2022/05/12 04:15:33;;;;;;;3.20;0.90;;;16.10;78.20;;;;;;10371251;28;20422;-60
2022/05/12 04:20:35;;;;;;;1.90;0.73;;;16.10;78.20;;;;;;10370994;28;20022;-60
2022/05/12 04:25:35;;;;;;;3.83;0.70;;;16.10;78.20;;;;;;10370851;28;20153;-61
2022/05/12 04:30:38;;;;;;;4.68;1.00;;;16.10;78.20;;;;;;10370958;28;20022;-63
2022/05/12 04:35:39;;;;;;;3.03;1.00;;;16.00;78.20;;;;;;10370760;28;20383;-66
2022/05/12 04:40:40;;;;;;;4.35;1.33;;;16.10;78.20;;;;;;10370390;28;20014;-66
2022/05/12 04:45:40;;;;;;;6.70;1.38;;;16.00;78.30;;;;;;10369934;28;20042;-62
2022/05/12 04:50:41;;;;;;;2.35;1.08;;;16.00;78.40;;;;;;10369806;28;20030;-62
2022/05/12 04:55:44;;;;;;;3.08;1.40;;;16.00;78.40;;;;;;10370136;28;20030;-69
2022/05/12 05:00:45;;;;;;;2.03;1.05;;;15.90;78.40;;;;;;10369836;28;20034;-60
2022/05/12 05:05:46;;;;;;;2.58;1.35;;;15.90;78.40;;;;;;10369885;28;20038;-68
2022/05/12 05:10:48;;;;;;;1.90;1.10;;;16.00;78.40;;;;;;10369557;28;20057;-67
2022/05/12 05:15:51;;;;;;;2.03;1.00;;;15.90;78.40;;;;;;10369241;28;20037;-66
2022/05/12 05:20:51;;;;;;;5.13;1.42;;;15.90;78.40;;;;;;10369230;28;20029;-59
2022/05/12 05:25:52;;;;;;;3.92;1.17;;;15.90;78.40;;;;;;10368384;28;20038;-59
2022/05/12 05:30:54;;;;;;;3.65;1.52;;;15.90;78.40;;;;;;10369275;28;20034;-64
2022/05/12 05:35:54;;;;;;;3.08;1.30;;;16.00;78.40;;;;;;10368859;28;20050;-62
2022/05/12 05:40:55;;;;;;;5.05;1.83;;;15.90;78.40;;;;;;10368885;28;20033;-59
2022/05/12 05:45:56;;;;;;;3.50;1.20;;;15.90;78.40;;;;;;10368340;28;20557;-58
2022/05/12 05:56:17;;;;;;;2.85;1.20;;;15.90;78.50;;;;;;10367735;28;20105;-62
2022/05/12 06:01:18;;;;;;;2.33;1.17;;;15.90;78.50;;;;;;10368076;28;20098;-60
2022/05/12 06:06:19;;;;;;;2.72;1.23;;;15.90;78.50;;;;;;10367509;28;20128;-60
2022/05/12 06:11:19;;;;;;;1.88;1.00;;;15.90;78.60;;;;;;10367539;28;20447;-61
2022/05/12 06:16:20;;;;;;;4.13;1.20;;;15.90;78.60;;;;;;10367532;28;20030;-60
2022/05/12 06:21:21;;;;;;;5.18;1.20;;;16.00;78.70;;;;;;10367511;28;20034;-61
2022/05/12 06:26:23;;;;;;;3.20;1.42;;;16.00;78.80;;;;;;10367396;28;20513;-67
2022/05/12 06:31:29;;;;;;;3.35;0.88;;;16.00;78.80;;;;;;10366972;28;20034;-65
2022/05/12 06:36:30;;;;;;;3.85;1.00;;;16.00;78.90;;;;;;10366729;28;20037;-66
2022/05/12 06:41:32;;;;;;;5.22;1.55;;;16.00;78.90;;;;;;10366486;28;20037;-60
2022/05/12 06:46:32;;;;;;;3.92;1.20;;;16.00;78.90;;;;;;10365920;28;20163;-63
2022/05/12 06:51:34;;;;;;;2.10;0.90;;;16.00;78.90;;;;;;10366288;28;20113;-69
2022/05/12 06:56:35;;;;;;;2.95;1.00;;;16.10;78.90;;;;;;10365917;28;20036;-59
2022/05/12 07:01:35;;;;;;;2.50;0.90;;;16.10;78.80;;;;;;10365897;28;20032;-59
2022/05/12 07:06:36;;;;;;;1.65;0.93;;;16.10;78.80;;;;;;10365641;28;20114;-59
2022/05/12 07:11:37;;;;;;;1.80;1.25;;;16.20;78.90;;;;;;10365813;28;20164;-67
2022/05/12 07:16:38;;;;;;;2.33;1.02;;;16.20;78.80;;;;;;10365236;28;20487;-66
2022/05/12 07:26:58;;;;;;;1.08;0.82;;;16.20;78.70;;;;;;10365265;28;20033;-63
2022/05/12 07:31:58;;;;;;;4.53;1.02;;;16.30;78.80;;;;;;10364522;28;20022;-63
2022/05/12 07:36:59;;;;;;;1.70;0.82;;;16.30;78.80;;;;;;10363080;28;20074;-59
2022/05/12 07:42:01;;;;;;;2.70;1.00;;;16.30;78.80;;;;;;10362980;28;20074;-67
2022/05/12 07:47:06;;;;;;;4.40;0.90;;;16.40;78.80;;;;;;10366914;28;20071;-67
2022/05/12 07:52:09;;;;;;;3.30;0.90;;;16.40;78.80;;;;;;10370232;28;20026;-68
2022/05/12 07:57:10;;;;;;;5.38;1.20;;;16.40;78.70;;;;;;10370248;28;20091;-65
2022/05/12 08:02:15;;;;;;;3.00;1.10;;;16.50;78.70;;;;;;10370782;28;20094;-64
2022/05/12 08:07:16;;;;;;;3.40;1.00;;;16.50;78.60;;;;;;10369749;28;20093;-60
2022/05/12 08:12:17;;;;;;;2.55;1.10;;;16.60;78.60;;;;;;10369627;28;20054;-61
2022/05/12 08:17:17;;;;;;;2.40;0.82;;;16.50;78.60;;;;;;10370974;28;20033;-65
2022/05/12 08:22:18;;;;;;;2.35;1.13;;;16.60;78.60;;;;;;10371027;28;20057;-65
2022/05/12 08:27:20;;;;;;;4.80;1.13;;;16.60;78.50;;;;;;10370791;28;20116;-68
2022/05/12 08:32:20;;;;;;;2.35;1.20;;;16.70;78.50;;;;;;10370398;28;20058;-65
2022/05/12 08:37:22;;;;;;;3.42;1.05;;;16.60;78.40;;;;;;10370247;28;20158;-62
2022/05/12 08:42:44;;;;;;;2.55;1.10;;;16.70;78.30;;;;;;10370364;28;20030;-66
2022/05/12 08:47:48;;;;;;;4.13;1.02;;;16.80;78.60;;;;;;10354332;28;20042;-66
2022/05/12 08:52:51;;;;;;;1.70;1.00;;;16.80;78.30;;;;;;10369857;28;20375;-67
2022/05/12 08:58:00;;;;;;;3.05;1.10;;;16.80;78.10;;;;;;10369604;28;20025;-62
2022/05/12 09:03:30;;;;;;;3.30;1.00;;;16.90;78.00;;;;;;10369596;28;20502;-60
2022/05/12 09:08:43;;;;;;;4.45;1.50;;;16.90;77.90;;;;;;10369107;28;20050;-60
2022/05/12 09:13:50;;;;;;;1.92;1.10;;;17.00;77.70;;;;;;10369116;28;20022;-62
2022/05/12 09:18:53;;;;;;;4.03;1.50;;;17.00;77.60;;;;;;10369359;28;20109;-67
2022/05/12 09:23:54;;;;;;;3.60;1.10;;;17.00;77.50;;;;;;10368957;28;20078;-66
2022/05/12 09:29:09;;;;;;;3.10;1.13;;;17.10;77.40;;;;;;10369214;28;20040;-65
2022/05/12 09:34:36;;;;;;;4.82;1.33;;;17.10;76.90;;;;;;10369224;28;20030;-65
2022/05/12 09:39:40;;;;;;;6.32;1.58;;;17.00;75.50;;;;;;10368375;28;20045;-67
2022/05/12 09:44:52;;;;;;;5.90;1.30;;;17.10;76.20;;;;;;10368450;28;20495;-65
2022/05/12 09:50:16;;;;;;;5.85;1.52;;;17.10;76.10;;;;;;10368155;28;20081;-63
2022/05/12 09:55:19;;;;;;;4.78;1.40;;;17.20;76.00;;;;;;10367936;28;20034;-65
2022/05/12 10:00:50;;;;;;;3.55;1.20;;;17.20;75.40;;;;;;10367894;28;20072;-62
2022/05/12 10:11:41;;;;;;;5.78;1.25;;;17.20;74.70;;;;;;10363711;28;20053;-63
2022/05/12 10:16:42;;;;;;;4.28;1.08;;;17.30;75.30;;;;;;10367361;28;20059;-58
2022/05/12 10:21:47;;;;;;;5.03;1.25;;;17.40;75.30;;;;;;10367257;28;20069;-58
2022/05/12 10:26:56;;;;;;;4.50;1.20;;;17.50;75.50;;;;;;10366498;28;20152;-58
2022/05/12 10:32:07;;;;;;;4.22;1.25;;;17.50;75.30;;;;;;10366865;28;20034;-60
2022/05/12 10:37:40;;;;;;;4.68;1.30;;;17.60;75.40;;;;;;10366536;28;20026;-68
2022/05/12 10:42:50;;;;;;;4.63;1.45;;;17.70;74.60;;;;;;10366267;28;20029;-68
2022/05/12 10:48:07;;;;;;;2.60;1.60;;;17.70;74.00;;;;;;10366651;28;20034;-67
2022/05/12 17:35:37;;;;;;;2.83;0.80;;;18.80;62.10;;;;;;10489340;28;20439;-65
2022/05/12 17:40:38;;;;;;;2.05;1.10;;;18.70;64.40;;;;;;10498515;28;20033;-66
2022/05/12 17:45:40;;;;;;;3.38;1.00;;;18.60;64.60;;;;;;10497909;28;20045;-65
2022/05/12 17:50:41;;;;;;;8.20;0.90;;;18.50;64.30;;;;;;10497951;28;20458;-69
2022/05/12 17:55:45;;;;;;;1.83;0.65;;;18.40;64.30;;;;;;10498098;28;20469;-70
2022/05/12 18:00:46;;;;;;;6.00;0.80;;;18.30;64.20;;;;;;10479517;28;20420;-60
2022/05/12 18:05:47;;;;;;;2.95;0.80;;;18.20;64.30;;;;;;10496741;28;20044;-69
2022/05/12 18:10:49;;;;;;;3.92;0.73;;;18.20;64.50;;;;;;10497143;28;20056;-67
2022/05/12 18:15:53;;;;;;;2.75;0.60;;;18.20;64.30;;;;;;10496641;28;20049;-60
2022/05/12 18:20:54;;;;;;;1.88;0.70;;;18.20;64.20;;;;;;10496542;28;20468;-66
2022/05/12 18:25:55;;;;;;;3.47;0.90;;;18.10;64.00;;;;;;10496234;28;20123;-61
2022/05/12 18:30:56;;;;;;;1.60;0.70;;;18.10;64.00;;;;;;10495824;28;20036;-66
2022/05/12 18:35:57;;;;;;;2.70;0.80;;;18.10;64.20;;;;;;10496002;28;20067;-60
2022/05/12 18:40:58;;;;;;;5.32;1.00;;;18.10;64.40;;;;;;10495969;28;20029;-67
2022/05/12 18:45:59;;;;;;;5.30;0.90;;;17.90;64.50;;;;;;10495609;28;20420;-64
2022/05/12 18:51:00;;;;;;;2.47;0.82;;;17.90;64.60;;;;;;10495550;28;20062;-67
2022/05/12 18:56:04;;;;;;;3.00;0.95;;;17.80;64.80;;;;;;10495462;28;20570;-64
2022/05/12 19:01:05;;;;;;;3.67;0.98;;;17.80;65.20;;;;;;10495438;28;20055;-66
2022/05/12 19:06:06;;;;;;;2.47;1.00;;;17.70;65.50;;;;;;10477113;28;20041;-62
2022/05/12 19:11:07;;;;;;;3.72;1.00;;;17.70;65.90;;;;;;10476983;28;20082;-68
2022/05/12 19:16:12;;;;;;;2.55;0.60;;;17.60;66.30;;;;;;10494797;28;20052;-68
2022/05/12 19:21:13;;;;;;;4.68;0.88;;;17.50;66.70;;;;;;10494589;28;20457;-66
2022/05/12 19:26:14;;;;;;;3.72;1.17;;;17.40;66.80;;;;;;10494461;28;20135;-63
2022/05/12 19:31:15;;;;;;;2.63;0.82;;;17.30;67.10;;;;;;10494351;28;20041;-63
2022/05/12 19:36:15;;;;;;;2.10;0.70;;;17.20;67.50;;;;;;10494347;28;20151;-66
2022/05/12 19:41:16;;;;;;;2.42;0.60;;;17.10;67.90;;;;;;10493358;28;20037;-62
2022/05/12 19:46:17;;;;;;;0.55;0.43;;;17.10;68.00;;;;;;10494008;28;20493;-65
2022/05/12 19:51:18;;;;;;;3.90;0.90;;;17.00;68.10;;;;;;10497271;28;20025;-74
2022/05/12 19:56:19;;;;;;;3.17;0.70;;;17.00;68.30;;;;;;10496111;28;20103;-74
2022/05/12 20:01:20;;;;;;;1.52;0.80;;;17.30;68.50;;;;;;10494263;28;20060;-70
2022/05/12 20:06:21;;;;;;;14.13;1.98;;;17.30;68.40;;;;;;10495394;28;20050;-66
2022/05/12 20:11:24;;;;;;;7.40;1.40;;;17.40;69.20;;;;;;10494294;28;20525;-69
2022/05/12 20:16:25;;;;;;;13.98;1.27;;;17.60;69.00;;;;;;10494106;28;20161;-70
2022/05/12 20:21:25;;;;;;;5.35;1.35;;;17.70;68.80;;;;;;10494056;28;20174;-71
2022/05/12 20:26:26;;;;;;;7.60;1.20;;;17.80;68.80;;;;;;10493699;28;20580;-67
2022/05/12 20:31:27;;;;;;;6.97;1.33;;;17.90;68.80;;;;;;10493608;28;20485;-70
2022/05/12 20:36:29;;;;;;;8.70;1.25;;;17.90;68.70;;;;;;10493555;28;20052;-70
2022/05/12 20:41:30;;;;;;;8.13;1.10;;;17.90;69.30;;;;;;10492577;28;20033;-64
2022/05/12 20:46:32;;;;;;;3.33;0.95;;;17.90;68.80;;;;;;10492960;28;20041;-69
2022/05/12 20:51:34;;;;;;;6.82;0.80;;;18.00;68.80;;;;;;10493382;28;20093;-66
2022/05/12 20:56:39;;;;;;;3.90;0.80;;;18.00;68.80;;;;;;10500955;28;20442;-70
2022/05/12 21:01:41;;;;;;;7.07;0.88;;;18.00;68.90;;;;;;10500285;28;20056;-68
2022/05/12 21:06:43;;;;;;;7.63;0.95;;;18.00;68.90;;;;;;10500793;28;20048;-67
2022/05/12 21:11:46;;;;;;;1.40;0.80;;;17.90;68.90;;;;;;10500563;28;20393;-65
2022/05/12 21:16:54;;;;;;;3.72;1.00;;;17.90;68.90;;;;;;10498601;28;20492;-69
2022/05/12 21:21:57;;;;;;;2.17;1.10;;;17.90;69.00;;;;;;10498997;28;20043;-66
2022/05/12 21:27:00;;;;;;;4.28;1.00;;;17.90;69.00;;;;;;10499645;28;20094;-71
2022/05/12 21:32:01;;;;;;;5.38;1.10;;;17.80;69.00;;;;;;10505815;28;20029;-72
2022/05/12 21:37:04;;;;;;;1.98;0.73;;;17.90;69.10;;;;;;10502837;28;20052;-70
2022/05/12 21:42:08;;;;;;;2.38;1.00;;;17.80;69.10;;;;;;10502354;28;20424;-67
2022/05/12 21:47:11;;;;;;;2.67;1.00;;;17.80;69.10;;;;;;10503722;28;20377;-70
2022/05/12 21:52:12;;;;;;;4.53;1.20;;;17.80;69.20;;;;;;10500656;28;20470;-69
2022/05/12 22:02:32;;;;;;;4.43;1.15;;;17.80;69.30;;;;;;10498953;28;20442;-66
2022/05/12 22:07:36;;;;;;;4.35;1.30;;;17.70;69.30;;;;;;10499165;28;20083;-69
2022/05/12 22:12:37;;;;;;;4.72;1.08;;;17.70;69.50;;;;;;10501997;28;20072;-73
2022/05/12 22:17:37;;;;;;;2.55;1.00;;;17.60;69.40;;;;;;10501599;28;20036;-64
2022/05/12 22:22:38;;;;;;;2.38;1.00;;;17.60;69.50;;;;;;10502828;28;20052;-72
2022/05/12 22:27:39;;;;;;;3.60;0.95;;;17.60;69.50;;;;;;10503291;28;20045;-71
2022/05/12 22:32:40;;;;;;;3.38;1.02;;;17.50;69.60;;;;;;10504770;28;20080;-72
2022/05/12 22:37:41;;;;;;;3.45;1.30;;;17.50;69.70;;;;;;10502111;28;20092;-66
2022/05/12 22:42:42;;;;;;;1.55;0.90;;;17.50;69.70;;;;;;10503540;28;20485;-69
2022/05/12 22:47:44;;;;;;;2.05;0.98;;;17.40;69.70;;;;;;10501507;28;20056;-74
2022/05/12 22:52:45;;;;;;;3.78;1.17;;;17.40;69.70;;;;;;10499016;28;20056;-66
2022/05/12 22:57:46;;;;;;;3.45;1.33;;;17.30;69.70;;;;;;10499651;28;20040;-74
2022/05/12 23:02:47;;;;;;;1.85;1.15;;;17.50;69.90;;;;;;10482504;28;20048;-72
2022/05/12 23:07:49;;;;;;;2.10;1.02;;;17.30;69.80;;;;;;10500114;28;20056;-71
2022/05/12 23:12:51;;;;;;;2.75;0.90;;;17.30;69.80;;;;;;10501536;28;20096;-66
2022/05/12 23:17:53;;;;;;;3.65;1.23;;;17.20;69.80;;;;;;10500253;28;20177;-75
2022/05/12 23:22:57;;;;;;;2.95;1.10;;;17.20;69.80;;;;;;10500803;28;20116;-74
2022/05/12 23:27:58;;;;;;;2.58;0.90;;;17.20;69.90;;;;;;10499869;28;20151;-71
2022/05/12 23:32:59;;;;;;;2.40;1.10;;;17.20;69.90;;;;;;10503806;28;20064;-74
2022/05/12 23:38:00;;;;;;;2.20;0.77;;;17.10;69.90;;;;;;10502916;28;20385;-71
2022/05/12 23:43:00;;;;;;;1.08;0.80;;;17.10;69.90;;;;;;10484657;28;20090;-71
2022/05/12 23:48:02;;;;;;;2.13;0.95;;;17.10;70.00;;;;;;10502693;28;20090;-74
2022/05/12 23:53:03;;;;;;;1.92;0.90;;;17.10;70.60;;;;;;10504338;28;20510;-75
2022/05/12 23:58:04;;;;;;;2.45;1.00;;;17.00;70.00;;;;;;10503033;28;20053;-74
